sensor_id;sensor_type;location;lat;lon;timestamp;P1;durP1;ratioP1;P2;durP2;ratioP2
9186;SDS011;7273;48.902;9.410;2023-03-23T00:02:30;1.42;;;0.75;;
9186;SDS011;7273;48.902;9.410;2023-03-23T00:05:00;0.98;;;0.60;;
9186;SDS011;7273;48.902;9.410;2023-03-23T00:07:28;2.53;;;1.45;;
9186;SDS011;7273;48.902;9.410;2023-03-23T00:09:54;43.38;;;16.98;;
9186;SDS011;7273;48.902;9.410;2023-03-23T00:12:21;3.80;;;2.15;;
9186;SDS011;7273;48.902;9.410;2023-03-23T00:14:54;8.23;;;5.72;;
9186;SDS011;7273;48.902;9.410;2023-03-23T00:17:22;11.80;;;9.15;;
9186;SDS011;7273;48.902;9.410;2023-03-23T00:19:48;47.70;;;34.00;;
9186;SDS011;7273;48.902;9.410;2023-03-23T00:22:14;121.97;;;58.38;;
9186;SDS011;7273;48.902;9.410;2023-03-23T00:24:41;160.23;;;67.20;;
9186;SDS011;7273;48.902;9.410;2023-03-23T00:27:09;268.23;;;92.60;;
9186;SDS011;7273;48.902;9.410;2023-03-23T00:29:37;164.23;;;68.63;;
9186;SDS011;7273;48.902;9.410;2023-03-23T00:32:03;257.95;;;90.45;;
9186;SDS011;7273;48.902;9.410;2023-03-23T00:34:28;304.23;;;100.18;;
9186;SDS011;7273;48.902;9.410;2023-03-23T00:39:23;184.68;;;65.50;;
9186;SDS011;7273;48.902;9.410;2023-03-23T00:41:52;184.63;;;74.47;;
9186;SDS011;7273;48.902;9.410;2023-03-23T00:44:25;100.57;;;52.38;;
9186;SDS011;7273;48.902;9.410;2023-03-23T00:46:51;300.98;;;98.30;;
9186;SDS011;7273;48.902;9.410;2023-03-23T00:49:20;0.60;;;0.40;;
9186;SDS011;7273;48.902;9.410;2023-03-23T00:51:50;1.20;;;0.65;;
9186;SDS011;7273;48.902;9.410;2023-03-23T00:54:15;1.00;;;0.80;;
9186;SDS011;7273;48.902;9.410;2023-03-23T00:56:41;3.53;;;0.30;;
9186;SDS011;7273;48.902;9.410;2023-03-23T00:59:06;0.00;;;0.00;;
9186;SDS011;7273;48.902;9.410;2023-03-23T01:01:32;0.35;;;0.20;;
9186;SDS011;7273;48.902;9.410;2023-03-23T01:03:58;1.00;;;0.40;;
9186;SDS011;7273;48.902;9.410;2023-03-23T01:06:29;0.52;;;0.22;;
9186;SDS011;7273;48.902;9.410;2023-03-23T01:09:00;0.80;;;0.47;;
9186;SDS011;7273;48.902;9.410;2023-03-23T01:11:28;1.10;;;0.52;;
9186;SDS011;7273;48.902;9.410;2023-03-23T01:13:53;0.45;;;0.25;;
9186;SDS011;7273;48.902;9.410;2023-03-23T01:16:19;1.02;;;0.22;;
9186;SDS011;7273;48.902;9.410;2023-03-23T01:18:45;0.95;;;0.75;;
9186;SDS011;7273;48.902;9.410;2023-03-23T01:21:15;0.17;;;0.17;;
9186;SDS011;7273;48.902;9.410;2023-03-23T01:23:43;0.60;;;0.32;;
9186;SDS011;7273;48.902;9.410;2023-03-23T01:26:12;0.10;;;0.10;;
9186;SDS011;7273;48.902;9.410;2023-03-23T01:28:40;0.13;;;0.13;;
9186;SDS011;7273;48.902;9.410;2023-03-23T01:31:09;0.30;;;0.20;;
9186;SDS011;7273;48.902;9.410;2023-03-23T01:33:39;0.30;;;0.17;;
9186;SDS011;7273;48.902;9.410;2023-03-23T01:36:07;0.20;;;0.20;;
9186;SDS011;7273;48.902;9.410;2023-03-23T01:38:35;0.63;;;0.25;;
9186;SDS011;7273;48.902;9.410;2023-03-23T01:41:01;0.40;;;0.32;;
9186;SDS011;7273;48.902;9.410;2023-03-23T01:43:27;0.13;;;0.10;;
9186;SDS011;7273;48.902;9.410;2023-03-23T01:45:53;0.00;;;0.00;;
9186;SDS011;7273;48.902;9.410;2023-03-23T01:48:35;0.13;;;0.13;;
9186;SDS011;7273;48.902;9.410;2023-03-23T01:53:30;0.20;;;0.10;;
9186;SDS011;7273;48.902;9.410;2023-03-23T01:55:59;0.43;;;0.10;;
9186;SDS011;7273;48.902;9.410;2023-03-23T01:58:27;0.00;;;0.00;;
9186;SDS011;7273;48.902;9.410;2023-03-23T02:00:55;0.17;;;0.17;;
9186;SDS011;7273;48.902;9.410;2023-03-23T02:03:25;0.77;;;0.30;;
9186;SDS011;7273;48.902;9.410;2023-03-23T02:05:52;0.10;;;0.10;;
9186;SDS011;7273;48.902;9.410;2023-03-23T02:08:19;0.00;;;0.00;;
9186;SDS011;7273;48.902;9.410;2023-03-23T02:10:46;0.55;;;0.30;;
9186;SDS011;7273;48.902;9.410;2023-03-23T02:13:12;0.00;;;0.00;;
9186;SDS011;7273;48.902;9.410;2023-03-23T02:15:45;0.10;;;0.10;;
9186;SDS011;7273;48.902;9.410;2023-03-23T02:21:53;0.15;;;0.15;;
9186;SDS011;7273;48.902;9.410;2023-03-23T02:30:27;0.28;;;0.20;;
9186;SDS011;7273;48.902;9.410;2023-03-23T02:35:36;0.55;;;0.30;;
9186;SDS011;7273;48.902;9.410;2023-03-23T02:38:13;0.10;;;0.10;;
9186;SDS011;7273;48.902;9.410;2023-03-23T02:40:44;0.30;;;0.30;;
9186;SDS011;7273;48.902;9.410;2023-03-23T02:43:14;0.32;;;0.32;;
9186;SDS011;7273;48.902;9.410;2023-03-23T02:45:43;0.57;;;0.25;;
9186;SDS011;7273;48.902;9.410;2023-03-23T02:48:10;0.10;;;0.05;;
9186;SDS011;7273;48.902;9.410;2023-03-23T02:50:38;1.17;;;0.55;;
9186;SDS011;7273;48.902;9.410;2023-03-23T02:53:07;0.20;;;0.20;;
9186;SDS011;7273;48.902;9.410;2023-03-23T02:55:37;0.43;;;0.30;;
9186;SDS011;7273;48.902;9.410;2023-03-23T02:58:07;0.60;;;0.47;;
9186;SDS011;7273;48.902;9.410;2023-03-23T03:00:36;0.95;;;0.30;;
9186;SDS011;7273;48.902;9.410;2023-03-23T03:03:02;0.20;;;0.20;;
9186;SDS011;7273;48.902;9.410;2023-03-23T03:15:56;0.20;;;0.20;;
9186;SDS011;7273;48.902;9.410;2023-03-23T03:19:10;0.20;;;0.20;;
9186;SDS011;7273;48.902;9.410;2023-03-23T03:21:12;0.28;;;0.15;;
9186;SDS011;7273;48.902;9.410;2023-03-23T03:23:42;0.17;;;0.15;;
9186;SDS011;7273;48.902;9.410;2023-03-23T03:26:10;3.15;;;0.30;;
9186;SDS011;7273;48.902;9.410;2023-03-23T03:28:38;0.35;;;0.30;;
9186;SDS011;7273;48.902;9.410;2023-03-23T03:31:04;0.22;;;0.15;;
9186;SDS011;7273;48.902;9.410;2023-03-23T03:33:32;0.60;;;0.60;;
9186;SDS011;7273;48.902;9.410;2023-03-23T03:36:01;0.22;;;0.22;;
9186;SDS011;7273;48.902;9.410;2023-03-23T03:38:28;0.52;;;0.32;;
9186;SDS011;7273;48.902;9.410;2023-03-23T03:40:54;0.20;;;0.20;;
9186;SDS011;7273;48.902;9.410;2023-03-23T03:43:20;1.15;;;0.63;;
9186;SDS011;7273;48.902;9.410;2023-03-23T03:45:46;0.13;;;0.13;;
9186;SDS011;7273;48.902;9.410;2023-03-23T03:48:12;2.22;;;0.68;;
9186;SDS011;7273;48.902;9.410;2023-03-23T03:50:37;1.30;;;0.68;;
9186;SDS011;7273;48.902;9.410;2023-03-23T03:53:03;0.10;;;0.10;;
9186;SDS011;7273;48.902;9.410;2023-03-23T03:55:30;0.30;;;0.10;;
9186;SDS011;7273;48.902;9.410;2023-03-23T03:58:00;0.82;;;0.40;;
9186;SDS011;7273;48.902;9.410;2023-03-23T04:00:26;1.27;;;0.40;;
9186;SDS011;7273;48.902;9.410;2023-03-23T04:02:52;0.20;;;0.20;;
9186;SDS011;7273;48.902;9.410;2023-03-23T04:05:19;0.93;;;0.52;;
9186;SDS011;7273;48.902;9.410;2023-03-23T04:07:46;0.85;;;0.30;;
9186;SDS011;7273;48.902;9.410;2023-03-23T04:10:14;0.60;;;0.43;;
9186;SDS011;7273;48.902;9.410;2023-03-23T04:12:40;0.30;;;0.30;;
9186;SDS011;7273;48.902;9.410;2023-03-23T04:15:05;0.28;;;0.28;;
9186;SDS011;7273;48.902;9.410;2023-03-23T04:17:32;0.55;;;0.40;;
9186;SDS011;7273;48.902;9.410;2023-03-23T04:19:58;0.40;;;0.22;;
9186;SDS011;7273;48.902;9.410;2023-03-23T04:22:25;0.85;;;0.30;;
9186;SDS011;7273;48.902;9.410;2023-03-23T04:24:58;0.95;;;0.43;;
9186;SDS011;7273;48.902;9.410;2023-03-23T04:27:25;0.28;;;0.28;;
9186;SDS011;7273;48.902;9.410;2023-03-23T04:29:53;0.38;;;0.32;;
9186;SDS011;7273;48.902;9.410;2023-03-23T04:32:23;0.63;;;0.20;;
9186;SDS011;7273;48.902;9.410;2023-03-23T04:34:53;0.35;;;0.25;;
9186;SDS011;7273;48.902;9.410;2023-03-23T04:37:19;0.55;;;0.13;;
9186;SDS011;7273;48.902;9.410;2023-03-23T04:39:45;0.17;;;0.17;;
9186;SDS011;7273;48.902;9.410;2023-03-23T04:42:10;3.97;;;0.35;;
9186;SDS011;7273;48.902;9.410;2023-03-23T04:44:36;1.45;;;0.30;;
9186;SDS011;7273;48.902;9.410;2023-03-23T04:47:01;0.10;;;0.10;;
9186;SDS011;7273;48.902;9.410;2023-03-23T04:49:27;0.88;;;0.75;;
9186;SDS011;7273;48.902;9.410;2023-03-23T04:51:54;0.30;;;0.30;;
9186;SDS011;7273;48.902;9.410;2023-03-23T04:54:21;0.50;;;0.30;;
9186;SDS011;7273;48.902;9.410;2023-03-23T04:56:47;0.32;;;0.10;;
9186;SDS011;7273;48.902;9.410;2023-03-23T04:59:12;0.95;;;0.30;;
9186;SDS011;7273;48.902;9.410;2023-03-23T05:01:38;6.32;;;0.45;;
9186;SDS011;7273;48.902;9.410;2023-03-23T05:04:05;0.25;;;0.15;;
9186;SDS011;7273;48.902;9.410;2023-03-23T05:06:30;0.20;;;0.10;;
9186;SDS011;7273;48.902;9.410;2023-03-23T05:08:56;0.10;;;0.10;;
9186;SDS011;7273;48.902;9.410;2023-03-23T05:11:21;0.35;;;0.35;;
9186;SDS011;7273;48.902;9.410;2023-03-23T05:13:47;1.42;;;0.30;;
9186;SDS011;7273;48.902;9.410;2023-03-23T05:16:12;0.15;;;0.15;;
9186;SDS011;7273;48.902;9.410;2023-03-23T05:18:38;0.20;;;0.20;;
9186;SDS011;7273;48.902;9.410;2023-03-23T05:21:03;0.82;;;0.32;;
9186;SDS011;7273;48.902;9.410;2023-03-23T05:23:29;0.20;;;0.20;;
9186;SDS011;7273;48.902;9.410;2023-03-23T05:25:58;0.10;;;0.10;;
9186;SDS011;7273;48.902;9.410;2023-03-23T05:28:27;0.40;;;0.22;;
9186;SDS011;7273;48.902;9.410;2023-03-23T05:30:53;1.85;;;0.45;;
9186;SDS011;7273;48.902;9.410;2023-03-23T05:33:20;0.17;;;0.10;;
9186;SDS011;7273;48.902;9.410;2023-03-23T05:35:46;0.28;;;0.20;;
9186;SDS011;7273;48.902;9.410;2023-03-23T05:38:12;1.08;;;0.80;;
9186;SDS011;7273;48.902;9.410;2023-03-23T05:40:39;0.65;;;0.47;;
9186;SDS011;7273;48.902;9.410;2023-03-23T05:43:06;0.10;;;0.10;;
9186;SDS011;7273;48.902;9.410;2023-03-23T05:45:32;0.47;;;0.30;;
9186;SDS011;7273;48.902;9.410;2023-03-23T05:47:58;0.98;;;0.73;;
9186;SDS011;7273;48.902;9.410;2023-03-23T05:50:24;0.70;;;0.50;;
9186;SDS011;7273;48.902;9.410;2023-03-23T05:52:50;0.90;;;0.25;;
9186;SDS011;7273;48.902;9.410;2023-03-23T05:55:16;0.30;;;0.30;;
9186;SDS011;7273;48.902;9.410;2023-03-23T05:57:41;0.63;;;0.63;;
9186;SDS011;7273;48.902;9.410;2023-03-23T06:00:08;0.93;;;0.47;;
9186;SDS011;7273;48.902;9.410;2023-03-23T06:02:45;0.45;;;0.20;;
9186;SDS011;7273;48.902;9.410;2023-03-23T06:05:12;0.28;;;0.20;;
9186;SDS011;7273;48.902;9.410;2023-03-23T06:07:38;0.43;;;0.40;;
9186;SDS011;7273;48.902;9.410;2023-03-23T06:10:07;0.85;;;0.52;;
9186;SDS011;7273;48.902;9.410;2023-03-23T06:12:34;0.63;;;0.45;;
9186;SDS011;7273;48.902;9.410;2023-03-23T06:15:00;1.30;;;0.65;;
9186;SDS011;7273;48.902;9.410;2023-03-23T06:17:25;0.63;;;0.28;;
9186;SDS011;7273;48.902;9.410;2023-03-23T06:19:51;2.47;;;1.05;;
9186;SDS011;7273;48.902;9.410;2023-03-23T06:22:17;1.08;;;0.40;;
9186;SDS011;7273;48.902;9.410;2023-03-23T06:24:43;0.98;;;0.40;;
9186;SDS011;7273;48.902;9.410;2023-03-23T06:27:09;0.30;;;0.30;;
9186;SDS011;7273;48.902;9.410;2023-03-23T06:29:35;0.90;;;0.30;;
9186;SDS011;7273;48.902;9.410;2023-03-23T06:32:02;1.25;;;0.50;;
9186;SDS011;7273;48.902;9.410;2023-03-23T06:34:29;0.40;;;0.30;;
9186;SDS011;7273;48.902;9.410;2023-03-23T06:36:56;0.28;;;0.22;;
9186;SDS011;7273;48.902;9.410;2023-03-23T06:39:22;0.40;;;0.30;;
9186;SDS011;7273;48.902;9.410;2023-03-23T06:41:47;5.13;;;0.63;;
9186;SDS011;7273;48.902;9.410;2023-03-23T06:44:13;0.10;;;0.10;;
9186;SDS011;7273;48.902;9.410;2023-03-23T06:46:39;0.60;;;0.60;;
9186;SDS011;7273;48.902;9.410;2023-03-23T06:49:06;0.40;;;0.40;;
9186;SDS011;7273;48.902;9.410;2023-03-23T06:51:32;0.20;;;0.20;;
9186;SDS011;7273;48.902;9.410;2023-03-23T06:53:57;1.33;;;0.20;;
9186;SDS011;7273;48.902;9.410;2023-03-23T06:56:23;0.28;;;0.10;;
9186;SDS011;7273;48.902;9.410;2023-03-23T06:58:48;2.45;;;0.28;;
9186;SDS011;7273;48.902;9.410;2023-03-23T07:01:14;0.65;;;0.65;;
9186;SDS011;7273;48.902;9.410;2023-03-23T07:03:40;1.25;;;0.52;;
9186;SDS011;7273;48.902;9.410;2023-03-23T07:06:06;0.50;;;0.50;;
9186;SDS011;7273;48.902;9.410;2023-03-23T07:08:32;0.60;;;0.30;;
9186;SDS011;7273;48.902;9.410;2023-03-23T07:10:57;1.90;;;0.45;;
9186;SDS011;7273;48.902;9.410;2023-03-23T07:13:23;0.40;;;0.35;;
9186;SDS011;7273;48.902;9.410;2023-03-23T07:15:48;0.98;;;0.50;;
9186;SDS011;7273;48.902;9.410;2023-03-23T07:18:15;0.30;;;0.15;;
9186;SDS011;7273;48.902;9.410;2023-03-23T07:20:41;0.70;;;0.47;;
9186;SDS011;7273;48.902;9.410;2023-03-23T07:23:07;0.43;;;0.35;;
9186;SDS011;7273;48.902;9.410;2023-03-23T07:25:34;0.20;;;0.20;;
9186;SDS011;7273;48.902;9.410;2023-03-23T07:28:01;0.65;;;0.50;;
9186;SDS011;7273;48.902;9.410;2023-03-23T07:30:27;0.30;;;0.30;;
9186;SDS011;7273;48.902;9.410;2023-03-23T07:32:56;0.65;;;0.30;;
9186;SDS011;7273;48.902;9.410;2023-03-23T07:35:23;1.00;;;0.47;;
9186;SDS011;7273;48.902;9.410;2023-03-23T07:37:49;1.05;;;0.47;;
9186;SDS011;7273;48.902;9.410;2023-03-23T07:40:16;1.10;;;0.77;;
9186;SDS011;7273;48.902;9.410;2023-03-23T07:42:46;0.43;;;0.43;;
9186;SDS011;7273;48.902;9.410;2023-03-23T07:47:43;0.50;;;0.40;;
9186;SDS011;7273;48.902;9.410;2023-03-23T07:50:09;0.15;;;0.15;;
9186;SDS011;7273;48.902;9.410;2023-03-23T07:52:35;0.22;;;0.22;;
9186;SDS011;7273;48.902;9.410;2023-03-23T07:55:02;1.08;;;0.60;;
9186;SDS011;7273;48.902;9.410;2023-03-23T07:57:29;0.88;;;0.65;;
9186;SDS011;7273;48.902;9.410;2023-03-23T07:59:55;1.67;;;0.80;;
9186;SDS011;7273;48.902;9.410;2023-03-23T08:02:22;1.58;;;0.82;;
9186;SDS011;7273;48.902;9.410;2023-03-23T08:04:48;0.40;;;0.40;;
9186;SDS011;7273;48.902;9.410;2023-03-23T08:07:14;2.40;;;0.50;;
9186;SDS011;7273;48.902;9.410;2023-03-23T08:09:40;1.05;;;0.40;;
9186;SDS011;7273;48.902;9.410;2023-03-23T08:12:06;0.68;;;0.47;;
9186;SDS011;7273;48.902;9.410;2023-03-23T08:14:31;0.40;;;0.30;;
9186;SDS011;7273;48.902;9.410;2023-03-23T08:16:57;0.75;;;0.30;;
9186;SDS011;7273;48.902;9.410;2023-03-23T08:19:23;2.55;;;0.65;;
9186;SDS011;7273;48.902;9.410;2023-03-23T08:21:49;1.73;;;0.68;;
9186;SDS011;7273;48.902;9.410;2023-03-23T08:24:15;1.40;;;0.50;;
9186;SDS011;7273;48.902;9.410;2023-03-23T08:26:41;0.40;;;0.30;;
9186;SDS011;7273;48.902;9.410;2023-03-23T08:29:07;18.95;;;0.52;;
9186;SDS011;7273;48.902;9.410;2023-03-23T08:31:33;0.43;;;0.43;;
9186;SDS011;7273;48.902;9.410;2023-03-23T08:34:01;0.85;;;0.32;;
9186;SDS011;7273;48.902;9.410;2023-03-23T08:36:29;0.32;;;0.30;;
9186;SDS011;7273;48.902;9.410;2023-03-23T08:38:55;0.85;;;0.47;;
9186;SDS011;7273;48.902;9.410;2023-03-23T08:41:20;0.38;;;0.30;;
9186;SDS011;7273;48.902;9.410;2023-03-23T08:43:46;0.70;;;0.30;;
9186;SDS011;7273;48.902;9.410;2023-03-23T08:46:12;0.65;;;0.40;;
9186;SDS011;7273;48.902;9.410;2023-03-23T08:48:37;0.22;;;0.20;;
9186;SDS011;7273;48.902;9.410;2023-03-23T08:51:04;1.35;;;0.73;;
9186;SDS011;7273;48.902;9.410;2023-03-23T08:53:31;0.90;;;0.30;;
9186;SDS011;7273;48.902;9.410;2023-03-23T08:56:06;2.35;;;0.77;;
9186;SDS011;7273;48.902;9.410;2023-03-23T08:58:37;0.40;;;0.32;;
9186;SDS011;7273;48.902;9.410;2023-03-23T09:01:03;0.82;;;0.30;;
9186;SDS011;7273;48.902;9.410;2023-03-23T09:03:31;0.20;;;0.20;;
9186;SDS011;7273;48.902;9.410;2023-03-23T09:06:00;1.48;;;0.35;;
9186;SDS011;7273;48.902;9.410;2023-03-23T09:08:28;0.25;;;0.25;;
9186;SDS011;7273;48.902;9.410;2023-03-23T09:10:55;6.68;;;0.95;;
9186;SDS011;7273;48.902;9.410;2023-03-23T09:13:23;1.23;;;0.55;;
9186;SDS011;7273;48.902;9.410;2023-03-23T09:15:49;0.90;;;0.60;;
9186;SDS011;7273;48.902;9.410;2023-03-23T09:18:14;2.92;;;0.50;;
9186;SDS011;7273;48.902;9.410;2023-03-23T09:20:40;0.55;;;0.40;;
9186;SDS011;7273;48.902;9.410;2023-03-23T09:23:07;0.63;;;0.30;;
9186;SDS011;7273;48.902;9.410;2023-03-23T09:25:33;0.98;;;0.55;;
9186;SDS011;7273;48.902;9.410;2023-03-23T09:27:58;0.57;;;0.57;;
9186;SDS011;7273;48.902;9.410;2023-03-23T09:30:25;1.38;;;0.55;;
9186;SDS011;7273;48.902;9.410;2023-03-23T09:32:55;1.13;;;0.55;;
9186;SDS011;7273;48.902;9.410;2023-03-23T09:35:21;0.43;;;0.40;;
9186;SDS011;7273;48.902;9.410;2023-03-23T09:37:47;1.38;;;0.35;;
9186;SDS011;7273;48.902;9.410;2023-03-23T09:40:16;2.45;;;0.38;;
9186;SDS011;7273;48.902;9.410;2023-03-23T09:45:43;0.32;;;0.25;;
9186;SDS011;7273;48.902;9.410;2023-03-23T09:50:37;0.67;;;0.37;;
9186;SDS011;7273;48.902;9.410;2023-03-23T09:55:42;0.50;;;0.50;;
9186;SDS011;7273;48.902;9.410;2023-03-23T09:58:14;1.10;;;0.47;;
9186;SDS011;7273;48.902;9.410;2023-03-23T10:01:06;0.68;;;0.35;;
9186;SDS011;7273;48.902;9.410;2023-03-23T10:03:41;0.35;;;0.20;;
9186;SDS011;7273;48.902;9.410;2023-03-23T10:06:10;0.32;;;0.28;;
9186;SDS011;7273;48.902;9.410;2023-03-23T10:08:38;0.55;;;0.40;;
9186;SDS011;7273;48.902;9.410;2023-03-23T10:17:03;0.55;;;0.40;;
9186;SDS011;7273;48.902;9.410;2023-03-23T10:19:37;0.60;;;0.52;;
9186;SDS011;7273;48.902;9.410;2023-03-23T10:22:11;5.10;;;1.02;;
9186;SDS011;7273;48.902;9.410;2023-03-23T10:29:43;0.60;;;0.60;;
9186;SDS011;7273;48.902;9.410;2023-03-23T10:32:17;0.63;;;0.35;;
9186;SDS011;7273;48.902;9.410;2023-03-23T10:37:29;0.20;;;0.20;;
9186;SDS011;7273;48.902;9.410;2023-03-23T10:40:01;0.47;;;0.45;;
9186;SDS011;7273;48.902;9.410;2023-03-23T10:42:34;1.58;;;0.38;;
9186;SDS011;7273;48.902;9.410;2023-03-23T10:45:11;1.17;;;0.85;;
9186;SDS011;7273;48.902;9.410;2023-03-23T10:50:34;1.00;;;0.80;;
9186;SDS011;7273;48.902;9.410;2023-03-23T10:53:03;1.05;;;0.50;;
9186;SDS011;7273;48.902;9.410;2023-03-23T10:55:40;0.50;;;0.32;;
9186;SDS011;7273;48.902;9.410;2023-03-23T10:58:09;0.20;;;0.20;;
9186;SDS011;7273;48.902;9.410;2023-03-23T11:00:48;0.68;;;0.32;;
9186;SDS011;7273;48.902;9.410;2023-03-23T11:05:53;0.35;;;0.20;;
9186;SDS011;7273;48.902;9.410;2023-03-23T11:08:26;1.40;;;0.40;;
9186;SDS011;7273;48.902;9.410;2023-03-23T11:11:20;0.43;;;0.43;;
9186;SDS011;7273;48.902;9.410;2023-03-23T11:13:59;0.63;;;0.32;;
9186;SDS011;7273;48.902;9.410;2023-03-23T11:16:41;2.15;;;0.60;;
9186;SDS011;7273;48.902;9.410;2023-03-23T11:19:15;0.85;;;0.63;;
9186;SDS011;7273;48.902;9.410;2023-03-23T11:21:50;0.47;;;0.38;;
9186;SDS011;7273;48.902;9.410;2023-03-23T11:24:20;1.10;;;0.63;;
9186;SDS011;7273;48.902;9.410;2023-03-23T11:26:48;2.20;;;1.02;;
9186;SDS011;7273;48.902;9.410;2023-03-23T11:29:17;0.28;;;0.28;;
9186;SDS011;7273;48.902;9.410;2023-03-23T11:31:47;0.38;;;0.30;;
9186;SDS011;7273;48.902;9.410;2023-03-23T11:34:20;0.45;;;0.40;;
9186;SDS011;7273;48.902;9.410;2023-03-23T11:36:50;3.55;;;0.45;;
9186;SDS011;7273;48.902;9.410;2023-03-23T11:39:29;0.73;;;0.30;;
9186;SDS011;7273;48.902;9.410;2023-03-23T11:41:58;0.32;;;0.30;;
9186;SDS011;7273;48.902;9.410;2023-03-23T11:44:31;0.43;;;0.40;;
9186;SDS011;7273;48.902;9.410;2023-03-23T11:47:01;0.25;;;0.10;;
9186;SDS011;7273;48.902;9.410;2023-03-23T11:52:34;0.68;;;0.40;;
9186;SDS011;7273;48.902;9.410;2023-03-23T11:55:25;0.85;;;0.40;;
9186;SDS011;7273;48.902;9.410;2023-03-23T11:57:54;1.00;;;0.52;;
9186;SDS011;7273;48.902;9.410;2023-03-23T12:00:21;0.47;;;0.43;;
9186;SDS011;7273;48.902;9.410;2023-03-23T12:02:52;0.43;;;0.35;;
9186;SDS011;7273;48.902;9.410;2023-03-23T12:06:05;2.15;;;0.43;;
9186;SDS011;7273;48.902;9.410;2023-03-23T12:19:45;2.08;;;0.52;;
9186;SDS011;7273;48.902;9.410;2023-03-23T12:30:45;0.82;;;0.43;;
9186;SDS011;7273;48.902;9.410;2023-03-23T12:33:17;0.38;;;0.32;;
9186;SDS011;7273;48.902;9.410;2023-03-23T12:38:44;1.83;;;0.65;;
9186;SDS011;7273;48.902;9.410;2023-03-23T12:44:35;0.30;;;0.30;;
9186;SDS011;7273;48.902;9.410;2023-03-23T12:47:12;0.30;;;0.30;;
9186;SDS011;7273;48.902;9.410;2023-03-23T12:50:05;4.15;;;1.05;;
9186;SDS011;7273;48.902;9.410;2023-03-23T12:52:40;0.73;;;0.60;;
9186;SDS011;7273;48.902;9.410;2023-03-23T12:55:19;13.15;;;0.70;;
9186;SDS011;7273;48.902;9.410;2023-03-23T13:00:29;0.80;;;0.40;;
9186;SDS011;7273;48.902;9.410;2023-03-23T13:05:35;0.70;;;0.45;;
9186;SDS011;7273;48.902;9.410;2023-03-23T13:08:13;1.05;;;0.75;;
9186;SDS011;7273;48.902;9.410;2023-03-23T13:10:44;0.65;;;0.43;;
9186;SDS011;7273;48.902;9.410;2023-03-23T13:13:20;0.52;;;0.30;;
9186;SDS011;7273;48.902;9.410;2023-03-23T13:21:33;8.98;;;1.17;;
9186;SDS011;7273;48.902;9.410;2023-03-23T13:24:07;1.35;;;0.50;;
9186;SDS011;7273;48.902;9.410;2023-03-23T13:26:40;5.30;;;1.15;;
9186;SDS011;7273;48.902;9.410;2023-03-23T13:31:45;0.52;;;0.43;;
9186;SDS011;7273;48.902;9.410;2023-03-23T13:36:44;0.57;;;0.30;;
9186;SDS011;7273;48.902;9.410;2023-03-23T13:39:22;9.13;;;0.80;;
9186;SDS011;7273;48.902;9.410;2023-03-23T13:44:43;0.40;;;0.30;;
9186;SDS011;7273;48.902;9.410;2023-03-23T13:57:49;1.55;;;0.65;;
9186;SDS011;7273;48.902;9.410;2023-03-23T14:05:32;3.13;;;0.93;;
9186;SDS011;7273;48.902;9.410;2023-03-23T14:08:02;2.03;;;0.80;;
9186;SDS011;7273;48.902;9.410;2023-03-23T14:10:51;0.63;;;0.50;;
9186;SDS011;7273;48.902;9.410;2023-03-23T14:16:02;3.47;;;0.65;;
9186;SDS011;7273;48.902;9.410;2023-03-23T14:18:39;0.73;;;0.45;;
9186;SDS011;7273;48.902;9.410;2023-03-23T14:21:13;2.88;;;1.05;;
9186;SDS011;7273;48.902;9.410;2023-03-23T14:23:40;0.32;;;0.32;;
9186;SDS011;7273;48.902;9.410;2023-03-23T14:26:16;2.03;;;0.70;;
9186;SDS011;7273;48.902;9.410;2023-03-23T14:28:44;1.02;;;0.60;;
9186;SDS011;7273;48.902;9.410;2023-03-23T14:31:17;1.30;;;0.77;;
9186;SDS011;7273;48.902;9.410;2023-03-23T14:33:48;1.20;;;1.10;;
9186;SDS011;7273;48.902;9.410;2023-03-23T14:36:26;2.10;;;0.40;;
9186;SDS011;7273;48.902;9.410;2023-03-23T14:38:58;3.55;;;1.20;;
9186;SDS011;7273;48.902;9.410;2023-03-23T14:41:28;2.70;;;1.13;;
9186;SDS011;7273;48.902;9.410;2023-03-23T14:43:55;2.22;;;0.75;;
9186;SDS011;7273;48.902;9.410;2023-03-23T14:46:20;0.57;;;0.50;;
9186;SDS011;7273;48.902;9.410;2023-03-23T14:48:46;1.27;;;0.95;;
9186;SDS011;7273;48.902;9.410;2023-03-23T14:51:17;1.20;;;0.40;;
9186;SDS011;7273;48.902;9.410;2023-03-23T14:53:43;0.75;;;0.75;;
9186;SDS011;7273;48.902;9.410;2023-03-23T14:56:13;1.30;;;0.73;;
9186;SDS011;7273;48.902;9.410;2023-03-23T14:58:44;0.30;;;0.30;;
9186;SDS011;7273;48.902;9.410;2023-03-23T15:01:11;0.30;;;0.30;;
9186;SDS011;7273;48.902;9.410;2023-03-23T15:03:43;2.08;;;0.50;;
9186;SDS011;7273;48.902;9.410;2023-03-23T15:06:15;0.95;;;0.45;;
9186;SDS011;7273;48.902;9.410;2023-03-23T15:11:21;1.02;;;0.60;;
9186;SDS011;7273;48.902;9.410;2023-03-23T15:13:50;0.30;;;0.30;;
9186;SDS011;7273;48.902;9.410;2023-03-23T15:16:32;1.25;;;0.57;;
9186;SDS011;7273;48.902;9.410;2023-03-23T15:19:03;0.40;;;0.30;;
9186;SDS011;7273;48.902;9.410;2023-03-23T15:24:31;0.73;;;0.38;;
9186;SDS011;7273;48.902;9.410;2023-03-23T15:29:53;1.75;;;0.30;;
9186;SDS011;7273;48.902;9.410;2023-03-23T15:32:21;1.65;;;0.90;;
9186;SDS011;7273;48.902;9.410;2023-03-23T15:35:04;0.55;;;0.45;;
9186;SDS011;7273;48.902;9.410;2023-03-23T15:40:05;21.98;;;1.10;;
9186;SDS011;7273;48.902;9.410;2023-03-23T15:42:31;2.00;;;0.70;;
9186;SDS011;7273;48.902;9.410;2023-03-23T15:47:37;0.52;;;0.40;;
9186;SDS011;7273;48.902;9.410;2023-03-23T15:50:18;1.13;;;0.60;;
9186;SDS011;7273;48.902;9.410;2023-03-23T15:52:52;3.40;;;1.00;;
9186;SDS011;7273;48.902;9.410;2023-03-23T15:55:22;1.83;;;0.77;;
9186;SDS011;7273;48.902;9.410;2023-03-23T15:57:50;0.98;;;0.50;;
9186;SDS011;7273;48.902;9.410;2023-03-23T16:00:17;1.00;;;0.55;;
9186;SDS011;7273;48.902;9.410;2023-03-23T16:02:47;1.60;;;0.68;;
9186;SDS011;7273;48.902;9.410;2023-03-23T16:05:18;2.60;;;1.17;;
9186;SDS011;7273;48.902;9.410;2023-03-23T16:07:43;18.83;;;7.45;;
9186;SDS011;7273;48.902;9.410;2023-03-23T16:10:16;156.02;;;60.42;;
9186;SDS011;7273;48.902;9.410;2023-03-23T16:12:43;1.55;;;0.52;;
9186;SDS011;7273;48.902;9.410;2023-03-23T16:15:10;141.35;;;56.33;;
9186;SDS011;7273;48.902;9.410;2023-03-23T16:17:35;16.38;;;9.13;;
9186;SDS011;7273;48.902;9.410;2023-03-23T16:20:01;85.72;;;40.88;;
9186;SDS011;7273;48.902;9.410;2023-03-23T16:22:33;17.25;;;6.85;;
9186;SDS011;7273;48.902;9.410;2023-03-23T16:24:58;1.08;;;0.77;;
9186;SDS011;7273;48.902;9.410;2023-03-23T16:27:24;0.57;;;0.40;;
9186;SDS011;7273;48.902;9.410;2023-03-23T16:29:49;1.10;;;0.70;;
9186;SDS011;7273;48.902;9.410;2023-03-23T16:32:14;4.72;;;0.47;;
9186;SDS011;7273;48.902;9.410;2023-03-23T16:34:40;1.40;;;0.65;;
9186;SDS011;7273;48.902;9.410;2023-03-23T16:37:05;0.35;;;0.32;;
9186;SDS011;7273;48.902;9.410;2023-03-23T16:39:31;2.22;;;0.95;;
9186;SDS011;7273;48.902;9.410;2023-03-23T16:41:56;1.65;;;0.22;;
9186;SDS011;7273;48.902;9.410;2023-03-23T16:44:22;1.45;;;0.50;;
9186;SDS011;7273;48.902;9.410;2023-03-23T16:46:47;1.80;;;0.57;;
9186;SDS011;7273;48.902;9.410;2023-03-23T16:49:12;1.02;;;0.50;;
9186;SDS011;7273;48.902;9.410;2023-03-23T16:51:38;0.45;;;0.40;;
9186;SDS011;7273;48.902;9.410;2023-03-23T16:54:03;0.73;;;0.60;;
9186;SDS011;7273;48.902;9.410;2023-03-23T16:56:28;0.20;;;0.20;;
9186;SDS011;7273;48.902;9.410;2023-03-23T16:58:54;0.22;;;0.20;;
9186;SDS011;7273;48.902;9.410;2023-03-23T17:01:20;1.23;;;0.43;;
9186;SDS011;7273;48.902;9.410;2023-03-23T17:03:45;0.22;;;0.22;;
9186;SDS011;7273;48.902;9.410;2023-03-23T17:06:10;1.73;;;0.55;;
9186;SDS011;7273;48.902;9.410;2023-03-23T17:08:36;4.32;;;0.82;;
9186;SDS011;7273;48.902;9.410;2023-03-23T17:11:01;0.70;;;0.30;;
9186;SDS011;7273;48.902;9.410;2023-03-23T17:13:27;1.23;;;0.45;;
9186;SDS011;7273;48.902;9.410;2023-03-23T17:15:53;0.75;;;0.63;;
9186;SDS011;7273;48.902;9.410;2023-03-23T17:18:21;0.35;;;0.30;;
9186;SDS011;7273;48.902;9.410;2023-03-23T17:20:48;1.40;;;0.75;;
9186;SDS011;7273;48.902;9.410;2023-03-23T17:23:13;1.10;;;0.30;;
9186;SDS011;7273;48.902;9.410;2023-03-23T17:25:42;0.20;;;0.15;;
9186;SDS011;7273;48.902;9.410;2023-03-23T17:28:08;0.28;;;0.20;;
9186;SDS011;7273;48.902;9.410;2023-03-23T17:30:33;0.68;;;0.35;;
9186;SDS011;7273;48.902;9.410;2023-03-23T17:32:59;1.30;;;0.55;;
9186;SDS011;7273;48.902;9.410;2023-03-23T17:35:24;1.00;;;0.47;;
9186;SDS011;7273;48.902;9.410;2023-03-23T17:37:50;0.45;;;0.30;;
9186;SDS011;7273;48.902;9.410;2023-03-23T17:40:15;0.80;;;0.13;;